EPKK

John Paul II International Kraków-Balice Airport

Kraków, Poland
TAF EPKK 260530Z 2606/2706 VRB02KT 9999 SCT040 TEMPO 2609/2613 SHRA BKN025CB BECMG 2613/2616 29010KT TEMPO 2613/2620 29015G25KT SHRA BKN025CB
Issued Valid From Valid To
Apr-26 @ 05:30 UTC
(28 minutes ago)
Apr-26 @ 06:00 UTC
(in 2 minutes)
Apr-27 @ 06:00 UTC
(in 24 hours)
Apr-26 @ 06:00 to Apr-26 @ 13:00
TAF EPKK 260530Z 2606/2706 VRB02KT 9999 SCT040
Wind Visibility Clouds
Variable at 2 knots 10,000+ meters
  • Scattered at 4,000' AGL
Temporary Apr-26 @ 09:00 to Apr-26 @ 13:00
TEMPO 2609/2613 SHRA BKN025CB
Clouds Conditions
  • Broken at 2,500' AGL
  • Rain
Temporary Apr-26 @ 13:00 to Apr-26 @ 20:00
TEMPO 2613/2620 29015G25KT SHRA BKN025CB
Wind Clouds Conditions
290° at 15 knots
 Gusting to 25 knots
  • Broken at 2,500' AGL
  • Rain
Becoming Apr-26 @ 13:00 to Apr-27 @ 06:00
BECMG 2613/2616 29010KT
Wind Visibility Clouds
290° at 10 knots 10,000+ meters
  • Scattered at 4,000' AGL
TAF EPKK 260530Z 2606/2706 VRB02KT 9999 SCT040 TEMPO 2609/2613 SHRA BKN025CB BECMG 2613/2616 29010KT TEMPO 2613/2620 29015G25KT SHRA BKN025CB
Issued Apr-26 @ 05:30 UTC
(28 minutes ago)
Valid From Apr-26 @ 06:00 UTC
(in 2 minutes)
Valid To Apr-27 @ 06:00 UTC
(in 24 hours)
Apr-26 @ 06:00 - Apr-26 @ 13:00
Wind Visibility
Variable at 2 knots 10,000+ meters
Clouds
  • Scattered at 4,000' AGL
Temporary Apr-26 @ 09:00 - Apr-26 @ 13:00
Clouds
  • Broken at 2,500' AGL
Conditions
  • Rain
Temporary Apr-26 @ 13:00 - Apr-26 @ 20:00
Wind
290° at 15 knots
 Gusting to 25 knots
Clouds
  • Broken at 2,500' AGL
Conditions
  • Rain
Becoming Apr-26 @ 13:00 - Apr-27 @ 06:00
Wind Visibility
290° at 10 knots 10,000+ meters
Clouds
  • Scattered at 4,000' AGL